Nissan Maru — JG5485 — position and weather

sailwx.info

Track history (hours):
 
Tides and Currents Weather Stations Pressure Air Temp Water Temp Dewpoint Dewpoint Depression Visibility Wind Speed Wind Dir Waves Ship Positions

Nissan Maru

Last reported at 2014-Aug-22 15:31 UTC. Time now 2014-Aug-22 15:48 UTC.
Position N 35°29' E 139°44'.

Length 108 m; draft 7.2 m.

Type: Cargo ship. MMSI: 431400593.

Date/timePositionNaut miles runAvg speedWind from/ knotsBaromVisibWave heightAir tempDewpointWater temp
2014-Aug-22 15:31N 35°29' E 139°44'0 0.0
2014-Aug-22 14:31N 35°29' E 139°44'0 0.0
2014-Aug-22 13:31N 35°29' E 139°44'0 0.0
2014-Aug-22 12:31N 35°29' E 139°44'0 0.0
2014-Aug-22 11:31N 35°29' E 139°44'0 0.0
2014-Aug-22 10:28N 35°29' E 139°44'0 0.0
2014-Aug-22 09:31N 35°29' E 139°44'0 0.0
2014-Aug-22 08:31N 35°29' E 139°44'0 0.0
2014-Aug-22 07:25N 35°29' E 139°44'0 0.0
2014-Aug-22 06:31N 35°29' E 139°44'0 0.0
2014-Aug-22 05:31N 35°29' E 139°44'0 0.0
2014-Aug-22 04:31N 35°29' E 139°44'0 0.0
2014-Aug-22 03:31N 35°29' E 139°44'0 0.0
2014-Aug-22 02:31N 35°29' E 139°44'0 0.0
2014-Aug-22 01:31N 35°29' E 139°44'0 0.0
2014-Aug-22 00:31N 35°29' E 139°44'0 0.0
2014-Aug-21 23:31N 35°29' E 139°44'0 0.0
2014-Aug-21 22:31N 35°29' E 139°44'0 0.0
2014-Aug-21 21:31N 35°29' E 139°44'0 0.0
2014-Aug-21 20:31N 35°29' E 139°44'0 0.0
2014-Aug-21 19:31N 35°29' E 139°44'0 0.0
2014-Aug-21 18:31N 35°29' E 139°44'0 0.0
2014-Aug-21 17:31N 35°29' E 139°44'0 0.0
2014-Aug-21 16:31N 35°29' E 139°44'0 0.0
2014-Aug-21 15:31N 35°29' E 139°44'0 0.0
2014-Aug-21 14:31N 35°29' E 139°44'0 0.0
2014-Aug-21 13:31N 35°29' E 139°44'0 0.0
2014-Aug-21 12:25N 35°29' E 139°44'2 2.4
2014-Aug-21 11:34N 35°27' E 139°46'1110.8
2014-Aug-21 10:34N 35°17' E 139°46'1111.2
2014-Aug-21 09:34N 35°06' E 139°44'1212.4
2014-Aug-21 08:34N 34°57' E 139°33'  
2014-Aug-18 10:24N 33°57' E 132°43'1 0.1
2014-Aug-17 12:07N 33°57' E 132°41'  
2014-Aug-14 21:14N 34°09' E 134°44'22110.5
2014-Aug-14 00:16N 34°47' E 139°08'1413.9
2014-Aug-13 23:14N 34°59' E 139°17'913.1
2014-Aug-13 22:32N 35°03' E 139°27'1313.0
2014-Aug-13 21:33N 35°07' E 139°42'1111.5
2014-Aug-13 20:33N 35°18' E 139°44'1110.7
2014-Aug-13 19:33N 35°29' E 139°44'0 0.1
2014-Aug-13 18:31N 35°29' E 139°44'0 0.0
2014-Aug-13 17:31N 35°29' E 139°44'0 0.0
2014-Aug-13 16:31N 35°29' E 139°44'0 0.0
2014-Aug-13 15:31N 35°29' E 139°44'0 0.0
2014-Aug-13 14:31N 35°29' E 139°44'0 0.0
2014-Aug-13 13:31N 35°29' E 139°44'0 0.0
2014-Aug-13 12:31N 35°29' E 139°44'0 0.0
2014-Aug-13 11:31N 35°29' E 139°44'0 0.0
2014-Aug-13 10:31N 35°29' E 139°44'0 0.0
2014-Aug-13 09:31N 35°29' E 139°44'0 0.0
2014-Aug-13 08:31N 35°29' E 139°44'1 0.6
2014-Aug-13 07:33N 35°29' E 139°45'4 4.2
2014-Aug-13 06:33N 35°24' E 139°45'0 0.1
2014-Aug-13 05:33N 35°24' E 139°45'0 0.1
2014-Aug-13 04:33N 35°24' E 139°45'0 0.0
2014-Aug-13 03:33N 35°24' E 139°45'0 0.1
2014-Aug-13 02:33N 35°24' E 139°45'0 0.0
2014-Aug-13 01:33N 35°24' E 139°45'5 4.6
2014-Aug-13 00:33N 35°20' E 139°44'10 9.6
2014-Aug-12 23:33N 35°10' E 139°47'1211.6
2014-Aug-12 22:33N 35°01' E 139°38'1212.0
2014-Aug-12 21:33N 34°54' E 139°26'  
Track history (hours):
 
Tides and Currents Weather Stations Pressure Air Temp Water Temp Dewpoint Dewpoint Depression Visibility Wind Speed Wind Dir Waves Ship Positions

Nissan Maru

Last reported at 2014-Aug-22 15:31 UTC. Time now 2014-Aug-22 15:48 UTC.
Position N 35°29' E 139°44'.

Length 108 m; draft 7.2 m.

Type: Cargo ship. MMSI: 431400593.

Date/timePositionNaut miles runAvg speedWind from/ knotsBaromVisibWave heightAir tempDewpointWater temp
2014-Aug-22 15:31N 35°29' E 139°44'0 0.0
2014-Aug-22 14:31N 35°29' E 139°44'0 0.0
2014-Aug-22 13:31N 35°29' E 139°44'0 0.0
2014-Aug-22 12:31N 35°29' E 139°44'0 0.0
2014-Aug-22 11:31N 35°29' E 139°44'0 0.0
2014-Aug-22 10:28N 35°29' E 139°44'0 0.0
2014-Aug-22 09:31N 35°29' E 139°44'0 0.0
2014-Aug-22 08:31N 35°29' E 139°44'0 0.0
2014-Aug-22 07:25N 35°29' E 139°44'0 0.0
2014-Aug-22 06:31N 35°29' E 139°44'0 0.0
2014-Aug-22 05:31N 35°29' E 139°44'0 0.0
2014-Aug-22 04:31N 35°29' E 139°44'0 0.0
2014-Aug-22 03:31N 35°29' E 139°44'0 0.0
2014-Aug-22 02:31N 35°29' E 139°44'0 0.0
2014-Aug-22 01:31N 35°29' E 139°44'0 0.0
2014-Aug-22 00:31N 35°29' E 139°44'0 0.0
2014-Aug-21 23:31N 35°29' E 139°44'0 0.0
2014-Aug-21 22:31N 35°29' E 139°44'0 0.0
2014-Aug-21 21:31N 35°29' E 139°44'0 0.0
2014-Aug-21 20:31N 35°29' E 139°44'0 0.0
2014-Aug-21 19:31N 35°29' E 139°44'0 0.0
2014-Aug-21 18:31N 35°29' E 139°44'0 0.0
2014-Aug-21 17:31N 35°29' E 139°44'0 0.0
2014-Aug-21 16:31N 35°29' E 139°44'0 0.0
2014-Aug-21 15:31N 35°29' E 139°44'0 0.0
2014-Aug-21 14:31N 35°29' E 139°44'0 0.0
2014-Aug-21 13:31N 35°29' E 139°44'0 0.0
2014-Aug-21 12:25N 35°29' E 139°44'2 2.4
2014-Aug-21 11:34N 35°27' E 139°46'1110.8
2014-Aug-21 10:34N 35°17' E 139°46'1111.2
2014-Aug-21 09:34N 35°06' E 139°44'1212.4
2014-Aug-21 08:34N 34°57' E 139°33'  
2014-Aug-18 10:24N 33°57' E 132°43'1 0.1
2014-Aug-17 12:07N 33°57' E 132°41'  
2014-Aug-14 21:14N 34°09' E 134°44'22110.5
2014-Aug-14 00:16N 34°47' E 139°08'1413.9
2014-Aug-13 23:14N 34°59' E 139°17'913.1
2014-Aug-13 22:32N 35°03' E 139°27'1313.0
2014-Aug-13 21:33N 35°07' E 139°42'1111.5
2014-Aug-13 20:33N 35°18' E 139°44'1110.7
2014-Aug-13 19:33N 35°29' E 139°44'0 0.1
2014-Aug-13 18:31N 35°29' E 139°44'0 0.0
2014-Aug-13 17:31N 35°29' E 139°44'0 0.0
2014-Aug-13 16:31N 35°29' E 139°44'0 0.0
2014-Aug-13 15:31N 35°29' E 139°44'0 0.0
2014-Aug-13 14:31N 35°29' E 139°44'0 0.0
2014-Aug-13 13:31N 35°29' E 139°44'0 0.0
2014-Aug-13 12:31N 35°29' E 139°44'0 0.0
2014-Aug-13 11:31N 35°29' E 139°44'0 0.0
2014-Aug-13 10:31N 35°29' E 139°44'0 0.0
2014-Aug-13 09:31N 35°29' E 139°44'0 0.0
2014-Aug-13 08:31N 35°29' E 139°44'1 0.6
2014-Aug-13 07:33N 35°29' E 139°45'4 4.2
2014-Aug-13 06:33N 35°24' E 139°45'0 0.1
2014-Aug-13 05:33N 35°24' E 139°45'0 0.1
2014-Aug-13 04:33N 35°24' E 139°45'0 0.0
2014-Aug-13 03:33N 35°24' E 139°45'0 0.1
2014-Aug-13 02:33N 35°24' E 139°45'0 0.0
2014-Aug-13 01:33N 35°24' E 139°45'5 4.6
2014-Aug-13 00:33N 35°20' E 139°44'10 9.6
2014-Aug-12 23:33N 35°10' E 139°47'1211.6
2014-Aug-12 22:33N 35°01' E 139°38'1212.0
2014-Aug-12 21:33N 34°54' E 139°26'  

Dump ship's entire track history